Time;durP1;ratioP1;P1;durP2;ratioP2;P2;SDS_P1;SDS_P2;PMS_P1;PMS_P2;Temp;Humidity;BMP_temperature;BMP_pressure;BME280_temperature;BME280_humidity;BME280_pressure;Samples;Min_cycle;Max_cycle;Signal;HPM_P1;HPM_P2
2021/06/16 00:00:19;;;;;;;7.28;2.28;;;20.90;68.80;;;;;;5049146;28;20025;-85
2021/06/16 00:02:45;;;;;;;7.80;2.00;;;20.90;68.90;;;;;;5050014;28;20033;-85
2021/06/16 00:05:13;;;;;;;7.57;2.22;;;20.80;69.10;;;;;;5031813;28;20032;-84
2021/06/16 00:07:39;;;;;;;7.15;1.98;;;20.80;69.20;;;;;;5032219;28;20059;-84
2021/06/16 00:10:06;;;;;;;5.28;1.70;;;20.70;69.30;;;;;;5049101;28;20106;-83
2021/06/16 00:12:31;;;;;;;5.15;1.73;;;20.70;69.20;;;;;;5049631;28;20025;-84
2021/06/16 00:14:57;;;;;;;8.50;1.85;;;20.70;69.20;;;;;;5031713;28;20084;-83
2021/06/16 00:17:23;;;;;;;6.75;2.00;;;20.70;68.90;;;;;;5050239;28;20144;-85
2021/06/16 00:19:48;;;;;;;8.40;2.25;;;20.70;69.10;;;;;;5031113;28;20036;-85
2021/06/16 00:22:14;;;;;;;6.47;1.88;;;20.60;69.30;;;;;;5049834;28;20021;-84
2021/06/16 00:24:40;;;;;;;6.85;1.70;;;20.60;69.50;;;;;;5032142;28;20452;-84
2021/06/16 00:27:06;;;;;;;7.95;1.83;;;20.50;70.40;;;;;;5034311;28;20030;-84
2021/06/16 00:29:32;;;;;;;7.20;2.22;;;20.50;69.70;;;;;;5052837;28;20060;-84
2021/06/16 00:31:58;;;;;;;8.65;2.40;;;20.50;69.80;;;;;;5053135;28;20057;-84
2021/06/16 00:34:24;;;;;;;5.03;1.77;;;20.50;69.90;;;;;;5053653;28;20039;-83
2021/06/16 00:36:49;;;;;;;10.23;2.45;;;20.50;70.10;;;;;;5054192;28;20425;-84
2021/06/16 00:39:15;;;;;;;8.77;2.00;;;20.50;70.20;;;;;;5035274;28;20664;-84
2021/06/16 00:41:41;;;;;;;8.75;1.75;;;20.40;70.20;;;;;;5035098;28;20052;-85
2021/06/16 00:44:07;;;;;;;7.35;1.70;;;20.40;70.40;;;;;;5035518;28;20044;-84
2021/06/16 00:46:33;;;;;;;7.97;2.05;;;20.30;70.80;;;;;;5053439;28;20036;-84
2021/06/16 00:48:59;;;;;;;7.47;2.03;;;20.30;71.10;;;;;;5052637;28;20037;-84
2021/06/16 00:51:25;;;;;;;7.68;1.92;;;20.30;71.10;;;;;;5052199;28;20025;-84
2021/06/16 00:53:51;;;;;;;10.27;2.40;;;20.30;71.50;;;;;;5052630;28;20442;-84
2021/06/16 00:56:17;;;;;;;7.90;1.90;;;20.30;71.40;;;;;;5034492;28;20021;-84
2021/06/16 00:58:44;;;;;;;8.50;1.90;;;20.20;71.30;;;;;;5037552;28;20040;-84
2021/06/16 01:01:12;;;;;;;3.40;1.58;;;20.20;71.60;;;;;;5070658;28;20020;-84
2021/06/16 01:03:58;;;;;;;;;;;20.20;71.70;;;;;;5057616;28;20028;-84
2021/06/16 01:06:43;;;;;;;8.30;2.42;;;20.20;72.00;;;;;;5074816;28;19905;-85
2021/06/16 01:09:17;;;;;;;4.85;2.08;;;20.20;72.10;;;;;;5058088;28;20066;-83
2021/06/16 01:12:10;;;;;;;7.60;1.90;;;20.20;72.20;;;;;;5053950;28;20506;-83
2021/06/16 01:15:14;;;;;;;6.63;1.83;;;20.10;72.30;;;;;;5054288;28;20028;-85
2021/06/16 01:17:47;;;;;;;6.93;1.80;;;20.20;72.50;;;;;;5072788;28;20025;-84
2021/06/16 01:20:31;;;;;;;10.88;2.20;;;20.10;72.80;;;;;;5053685;28;20452;-85
2021/06/16 01:23:09;;;;;;;6.10;1.70;;;20.00;73.00;;;;;;5072569;28;20084;-85
2021/06/16 01:25:57;;;;;;;5.80;1.83;;;20.00;73.20;;;;;;5072344;28;20052;-84
2021/06/16 01:28:25;;;;;;;8.93;2.30;;;20.00;73.50;;;;;;5054549;28;20033;-84
2021/06/16 01:30:53;;;;;;;7.65;2.13;;;20.00;73.60;;;;;;5053332;28;20032;-84
2021/06/16 01:33:19;;;;;;;8.07;2.10;;;20.00;73.60;;;;;;5054354;28;20120;-84
2021/06/16 01:35:47;;;;;;;6.03;2.00;;;20.00;73.60;;;;;;5054086;28;20105;-84
2021/06/16 01:38:14;;;;;;;4.40;1.55;;;20.10;73.50;;;;;;5071975;28;20423;-84
2021/06/16 01:40:41;;;;;;;6.70;2.30;;;20.00;73.50;;;;;;5070113;28;20024;-84
2021/06/16 01:43:07;;;;;;;5.28;1.90;;;20.00;73.70;;;;;;5053893;28;20105;-84
2021/06/16 01:45:36;;;;;;;9.73;2.40;;;20.10;73.70;;;;;;5071531;28;20142;-84
2021/06/16 01:48:06;;;;;;;7.43;2.22;;;20.10;73.50;;;;;;5071822;28;20059;-84
2021/06/16 01:50:33;;;;;;;9.02;2.53;;;20.00;73.80;;;;;;5052993;28;20031;-84
2021/06/16 01:53:00;;;;;;;6.55;1.95;;;20.10;73.90;;;;;;5071842;28;20115;-85
2021/06/16 01:55:26;;;;;;;7.25;2.10;;;20.10;73.90;;;;;;5053323;28;20115;-84
2021/06/16 01:57:56;;;;;;;4.65;2.05;;;20.00;74.00;;;;;;5071736;28;20120;-85
2021/06/16 02:00:23;;;;;;;9.85;2.28;;;20.00;73.90;;;;;;5052367;28;20056;-84
2021/06/16 02:02:50;;;;;;;11.13;2.25;;;20.00;74.10;;;;;;5071390;28;20056;-85
2021/06/16 02:05:19;;;;;;;8.48;2.85;;;20.00;74.10;;;;;;5069983;28;20365;-85
2021/06/16 02:07:57;;;;;;;7.43;2.17;;;20.00;73.90;;;;;;5071855;28;20024;-84
2021/06/16 02:10:30;;;;;;;8.73;1.90;;;20.00;74.30;;;;;;5070946;28;20248;-84
2021/06/16 02:12:59;;;;;;;11.98;2.60;;;20.00;74.30;;;;;;5070126;28;20682;-83
2021/06/16 02:15:31;;;;;;;6.80;2.90;;;19.90;74.50;;;;;;5069693;28;20040;-85
2021/06/16 02:18:00;;;;;;;7.28;2.20;;;19.90;74.80;;;;;;5053443;28;20031;-85
2021/06/16 02:20:26;;;;;;;6.68;2.17;;;19.80;75.00;;;;;;5069160;28;20622;-84
2021/06/16 02:22:52;;;;;;;7.30;2.40;;;19.90;75.20;;;;;;5071120;28;20115;-84
2021/06/16 02:25:20;;;;;;;7.20;2.30;;;19.90;75.30;;;;;;5070958;28;20033;-85
2021/06/16 02:27:45;;;;;;;10.20;2.28;;;19.90;75.40;;;;;;5069946;28;20032;-85
2021/06/16 02:30:12;;;;;;;8.88;2.35;;;19.90;75.40;;;;;;5068738;28;20050;-85
2021/06/16 02:32:38;;;;;;;6.68;2.17;;;19.90;75.40;;;;;;5070689;28;20349;-85
2021/06/16 02:35:05;;;;;;;7.55;2.30;;;19.90;75.10;;;;;;5069442;28;20029;-85
2021/06/16 02:37:32;;;;;;;8.32;2.30;;;19.90;75.40;;;;;;5070978;28;20021;-85
2021/06/16 02:40:04;;;;;;;9.07;2.38;;;19.80;75.40;;;;;;5070024;28;20465;-84
2021/06/16 02:42:30;;;;;;;7.00;2.08;;;19.70;75.80;;;;;;5070716;28;20029;-85
2021/06/16 02:44:56;;;;;;;9.23;2.28;;;19.70;76.10;;;;;;5070615;28;20024;-85
2021/06/16 02:47:23;;;;;;;9.32;2.55;;;19.70;76.10;;;;;;5070778;28;20024;-84
2021/06/16 02:49:55;;;;;;;7.38;2.38;;;19.70;76.30;;;;;;5068312;28;20071;-83
2021/06/16 02:52:21;;;;;;;12.80;2.58;;;19.60;76.60;;;;;;5069411;28;20481;-85
2021/06/16 02:54:55;;;;;;;6.15;2.10;;;19.70;76.60;;;;;;5070576;28;20131;-84
2021/06/16 02:57:22;;;;;;;7.20;2.05;;;19.80;76.10;;;;;;5069180;28;20079;-84
2021/06/16 02:59:50;;;;;;;7.78;2.80;;;19.80;76.70;;;;;;5069767;28;20028;-84
2021/06/16 03:02:20;;;;;;;8.52;2.50;;;19.70;76.30;;;;;;5070195;28;20013;-84
2021/06/16 03:04:46;;;;;;;6.97;2.40;;;19.70;76.80;;;;;;5070381;28;20031;-84
2021/06/16 03:07:13;;;;;;;7.30;2.22;;;19.70;77.00;;;;;;5070592;28;20123;-84
2021/06/16 03:09:39;;;;;;;11.52;2.70;;;19.70;76.70;;;;;;5069985;28;20154;-85
2021/06/16 03:12:07;;;;;;;9.52;3.00;;;19.70;76.70;;;;;;5070583;28;20101;-85
2021/06/16 03:14:33;;;;;;;6.75;2.40;;;19.70;76.80;;;;;;5070442;28;20073;-85
2021/06/16 03:17:00;;;;;;;6.10;2.95;;;19.70;76.70;;;;;;5070349;28;20103;-85
2021/06/16 03:19:26;;;;;;;12.88;2.88;;;19.60;77.00;;;;;;5068343;28;20070;-84
2021/06/16 03:21:54;;;;;;;6.75;2.47;;;19.60;77.40;;;;;;5070180;28;20384;-85
2021/06/16 03:24:22;;;;;;;8.23;2.50;;;19.60;77.80;;;;;;5070298;28;20027;-85
2021/06/16 03:26:49;;;;;;;7.95;2.65;;;19.60;77.30;;;;;;5068808;28;20519;-84
2021/06/16 03:29:16;;;;;;;7.15;2.85;;;19.60;77.40;;;;;;5068398;28;20036;-85
2021/06/16 03:31:43;;;;;;;10.75;2.55;;;19.60;77.70;;;;;;5068426;28;20040;-85
2021/06/16 03:34:09;;;;;;;7.25;2.25;;;19.50;78.20;;;;;;5068902;28;20455;-85
2021/06/16 03:36:37;;;;;;;9.30;2.72;;;19.50;78.10;;;;;;5070070;28;20112;-85
2021/06/16 03:39:07;;;;;;;10.90;2.50;;;19.70;78.00;;;;;;5068408;28;20347;-84
2021/06/16 03:41:36;;;;;;;6.43;2.25;;;19.50;78.10;;;;;;5069903;28;20334;-84
2021/06/16 03:44:04;;;;;;;9.90;2.90;;;19.50;78.40;;;;;;5068609;28;20107;-86
2021/06/16 03:46:33;;;;;;;8.55;3.17;;;19.50;78.80;;;;;;5068577;28;20115;-86
2021/06/16 03:49:00;;;;;;;8.15;2.70;;;19.40;79.00;;;;;;5067990;28;20554;-89
2021/06/16 03:51:27;;;;;;;9.52;2.55;;;19.40;79.30;;;;;;5069790;28;20045;-84
2021/06/16 03:53:53;;;;;;;9.35;3.22;;;19.40;79.50;;;;;;5071281;28;20035;-85
2021/06/16 03:56:22;;;;;;;6.40;2.47;;;19.40;79.50;;;;;;5071302;28;20063;-84
2021/06/16 03:58:49;;;;;;;8.32;2.95;;;19.40;79.60;;;;;;5073128;28;20104;-84
2021/06/16 04:01:16;;;;;;;9.80;3.15;;;19.40;79.70;;;;;;5075083;28;20477;-85
2021/06/16 04:03:42;;;;;;;10.32;2.70;;;19.40;79.70;;;;;;5073984;28;20032;-84
2021/06/16 04:06:08;;;;;;;8.82;3.05;;;19.40;79.90;;;;;;5076269;28;20493;-84
2021/06/16 04:08:37;;;;;;;7.85;2.50;;;19.40;80.30;;;;;;5074620;28;20028;-85
2021/06/16 04:11:03;;;;;;;12.13;2.83;;;19.40;80.40;;;;;;5074086;28;20049;-87
2021/06/16 04:13:28;;;;;;;12.38;3.00;;;19.40;80.20;;;;;;5072172;28;20025;-86
2021/06/16 04:15:54;;;;;;;10.68;3.33;;;19.40;80.50;;;;;;5073633;28;20452;-85
2021/06/16 04:18:21;;;;;;;9.45;3.20;;;19.50;80.60;;;;;;5072272;28;20027;-86
2021/06/16 04:20:47;;;;;;;9.43;2.95;;;19.50;80.60;;;;;;5072947;28;20405;-86
2021/06/16 04:23:15;;;;;;;7.32;3.05;;;19.50;80.30;;;;;;5072148;28;20020;-85
2021/06/16 04:25:40;;;;;;;7.60;3.35;;;19.60;80.20;;;;;;5072075;28;20129;-85
2021/06/16 04:28:06;;;;;;;10.43;3.20;;;19.60;80.40;;;;;;5072284;28;20032;-85
2021/06/16 04:30:32;;;;;;;8.57;2.92;;;19.50;80.50;;;;;;5073180;28;20032;-85
2021/06/16 04:32:57;;;;;;;10.38;2.97;;;19.60;80.50;;;;;;5073702;28;20539;-85
2021/06/16 04:35:23;;;;;;;14.68;3.50;;;19.50;80.70;;;;;;5073728;28;20103;-83
2021/06/16 04:37:49;;;;;;;11.30;2.97;;;19.50;81.00;;;;;;5074122;28;20016;-84
2021/06/16 04:40:15;;;;;;;8.65;2.97;;;19.60;81.50;;;;;;5072918;28;20086;-83
2021/06/16 04:42:40;;;;;;;10.07;3.17;;;19.60;81.30;;;;;;5073766;28;20071;-84
2021/06/16 04:45:07;;;;;;;8.25;3.03;;;19.60;80.90;;;;;;5073612;28;20443;-85
2021/06/16 04:47:33;;;;;;;11.63;3.28;;;19.60;81.60;;;;;;5071793;28;20021;-89
2021/06/16 04:49:59;;;;;;;9.13;3.10;;;19.60;80.80;;;;;;5071681;28;20123;-85
2021/06/16 04:52:25;;;;;;;11.32;4.82;;;19.70;81.10;;;;;;5072262;28;20112;-83
2021/06/16 04:54:50;;;;;;;9.05;3.80;;;19.70;81.00;;;;;;5076393;28;20411;-83
2021/06/16 04:57:17;;;;;;;12.52;3.75;;;19.70;81.10;;;;;;5074522;28;20025;-84
2021/06/16 04:59:42;;;;;;;10.23;3.30;;;19.70;81.40;;;;;;5075478;28;20072;-83
2021/06/16 05:02:08;;;;;;;8.40;3.42;;;19.70;81.40;;;;;;5076166;28;20089;-83
2021/06/16 05:04:34;;;;;;;11.60;3.53;;;19.80;81.80;;;;;;5073264;28;20488;-85
2021/06/16 05:07:00;;;;;;;9.57;3.33;;;19.80;81.80;;;;;;5072415;28;20028;-85
2021/06/16 05:09:26;;;;;;;10.38;3.70;;;19.80;81.60;;;;;;5075665;28;20029;-84
2021/06/16 05:11:51;;;;;;;10.95;3.55;;;19.90;81.60;;;;;;5077533;28;20036;-82
2021/06/16 05:14:17;;;;;;;11.13;3.90;;;20.00;81.60;;;;;;5077750;28;20072;-83
2021/06/16 05:16:43;;;;;;;10.80;3.88;;;20.00;81.90;;;;;;5076673;28;20020;-83
2021/06/16 05:19:17;;;;;;;9.98;3.80;;;20.00;81.80;;;;;;5078790;28;20080;-83
2021/06/16 05:21:43;;;;;;;10.60;3.67;;;20.10;81.80;;;;;;5078795;28;20020;-83
2021/06/16 05:24:09;;;;;;;10.05;3.65;;;20.00;81.70;;;;;;5079552;28;20469;-83
2021/06/16 05:26:37;;;;;;;12.50;3.70;;;20.10;82.00;;;;;;5077802;28;20020;-83
2021/06/16 05:29:04;;;;;;;15.13;4.30;;;20.00;82.10;;;;;;5077561;28;20047;-83
2021/06/16 05:31:30;;;;;;;10.52;3.50;;;20.10;81.70;;;;;;5079072;28;20024;-83
2021/06/16 05:33:55;;;;;;;8.55;3.90;;;20.10;82.30;;;;;;5080204;28;20102;-83
2021/06/16 05:36:21;;;;;;;9.65;4.00;;;20.20;82.10;;;;;;5079262;28;20558;-84
2021/06/16 05:38:48;;;;;;;7.32;3.42;;;20.10;81.80;;;;;;5078228;28;20772;-83
2021/06/16 05:41:14;;;;;;;8.40;3.65;;;20.20;82.00;;;;;;5079672;28;20020;-82
2021/06/16 05:43:39;;;;;;;11.27;4.10;;;20.30;81.60;;;;;;5078316;28;20035;-83
2021/06/16 05:46:05;;;;;;;10.68;4.05;;;20.30;81.60;;;;;;5079505;28;20040;-83
2021/06/16 05:48:31;;;;;;;8.68;3.80;;;20.30;81.30;;;;;;5080762;28;20370;-83
2021/06/16 05:50:56;;;;;;;13.65;4.10;;;20.40;81.50;;;;;;5079757;28;20116;-83
2021/06/16 05:53:22;;;;;;;13.82;4.10;;;20.40;81.50;;;;;;5078085;28;20024;-82
2021/06/16 05:55:47;;;;;;;12.00;4.20;;;20.40;81.50;;;;;;5075410;28;20067;-84
2021/06/16 05:58:13;;;;;;;10.85;3.67;;;20.50;81.50;;;;;;5080172;28;20097;-83
2021/06/16 06:00:39;;;;;;;8.52;3.53;;;20.50;81.60;;;;;;5076474;28;20033;-82
2021/06/16 06:03:05;;;;;;;6.45;3.17;;;20.60;81.80;;;;;;5076790;28;20051;-85
2021/06/16 06:05:30;;;;;;;12.32;4.03;;;20.60;80.60;;;;;;5073888;28;20381;-82
2021/06/16 06:07:56;;;;;;;9.77;3.72;;;20.60;80.60;;;;;;5080484;28;20025;-82
2021/06/16 06:10:23;;;;;;;8.30;3.13;;;20.70;80.70;;;;;;5081097;28;20035;-82
2021/06/16 06:12:49;;;;;;;8.15;3.05;;;20.70;81.20;;;;;;5080006;28;20108;-82
2021/06/16 06:15:15;;;;;;;7.60;3.50;;;20.80;81.00;;;;;;5080270;28;20103;-83
2021/06/16 06:17:42;;;;;;;9.18;3.33;;;20.80;80.70;;;;;;5074921;28;20357;-81
2021/06/16 06:20:08;;;;;;;6.75;3.10;;;20.80;80.40;;;;;;5075637;28;20031;-80
2021/06/16 06:22:34;;;;;;;8.65;3.40;;;20.90;80.40;;;;;;5077412;28;20047;-82
2021/06/16 06:25:00;;;;;;;8.57;3.70;;;20.90;80.40;;;;;;5076009;28;20065;-81
2021/06/16 06:27:26;;;;;;;7.60;3.22;;;20.90;80.70;;;;;;5075077;28;20035;-83
2021/06/16 06:29:51;;;;;;;9.65;4.00;;;21.00;82.50;;;;;;5073251;28;20033;-89
2021/06/16 06:32:17;;;;;;;10.10;3.53;;;21.30;83.70;;;;;;5070613;28;20060;-89
2021/06/16 06:34:43;;;;;;;10.88;3.85;;;21.30;80.90;;;;;;5071034;28;20025;-89
2021/06/16 06:37:08;;;;;;;9.38;3.97;;;21.30;80.00;;;;;;5073290;28;20032;-89
2021/06/16 06:39:34;;;;;;;9.80;4.05;;;21.30;80.10;;;;;;5070904;28;20020;-88
2021/06/16 06:42:00;;;;;;;9.10;3.65;;;21.30;80.30;;;;;;5071737;28;20119;-89
2021/06/16 06:44:26;;;;;;;8.90;3.70;;;21.30;80.70;;;;;;5063313;28;20127;-88
2021/06/16 06:46:51;;;;;;;7.15;3.53;;;21.30;80.90;;;;;;5055171;28;20104;-88
2021/06/16 06:49:17;;;;;;;9.00;3.80;;;21.30;80.70;;;;;;5055306;28;20067;-88
2021/06/16 06:51:43;;;;;;;11.40;4.20;;;21.30;81.00;;;;;;5055780;28;20071;-89
2021/06/16 06:54:08;;;;;;;7.05;3.47;;;21.30;81.30;;;;;;5055734;28;20078;-88
2021/06/16 06:56:38;;;;;;;8.90;3.60;;;21.30;81.10;;;;;;5055057;28;20035;-89
2021/06/16 06:59:04;;;;;;;6.78;4.00;;;21.30;81.10;;;;;;5052238;28;20029;-89
2021/06/16 07:01:30;;;;;;;7.28;3.80;;;21.40;81.30;;;;;;5052681;28;20116;-87
2021/06/16 07:03:55;;;;;;;7.78;3.53;;;21.40;81.20;;;;;;5071246;28;20114;-87
2021/06/16 07:06:21;;;;;;;6.65;3.22;;;21.40;81.10;;;;;;5052843;28;20123;-89
2021/06/16 07:08:47;;;;;;;6.53;3.30;;;21.40;80.60;;;;;;5053362;28;20117;-91
2021/06/16 07:11:21;;;;;;;9.90;3.45;;;21.40;81.20;;;;;;5053768;28;20032;-92
2021/06/16 07:13:47;;;;;;;6.63;3.03;;;21.50;80.40;;;;;;5052499;28;20028;-88
2021/06/16 07:16:13;;;;;;;7.05;3.30;;;21.50;80.50;;;;;;5051981;28;20388;-90
2021/06/16 07:18:38;;;;;;;8.02;3.75;;;21.60;80.50;;;;;;5058283;28;20024;-91
2021/06/16 07:21:05;;;;;;;8.98;4.55;;;21.60;80.10;;;;;;5052721;28;20481;-89
2021/06/16 07:23:31;;;;;;;7.65;3.80;;;21.60;80.00;;;;;;5054922;28;20024;-88
2021/06/16 07:26:02;;;;;;;5.75;3.50;;;21.60;80.40;;;;;;5053959;28;20028;-90
2021/06/16 07:28:27;;;;;;;9.55;3.60;;;21.70;80.40;;;;;;5056108;28;20025;-89
2021/06/16 07:30:53;;;;;;;6.10;3.30;;;21.70;79.90;;;;;;5054965;28;20420;-89
2021/06/16 07:33:19;;;;;;;11.18;3.83;;;21.70;80.20;;;;;;5054819;28;20031;-90
2021/06/16 07:35:45;;;;;;;11.55;3.53;;;21.70;82.50;;;;;;5052858;28;20029;-86
2021/06/16 07:38:13;;;;;;;7.07;3.50;;;21.80;82.10;;;;;;5071028;28;20134;-90
2021/06/16 07:40:39;;;;;;;;;;;21.80;82.80;;;;;;5052445;28;20031;-85
2021/06/16 07:43:05;;;;;;;7.43;4.00;;;21.70;88.00;;;;;;5071263;28;19908;-84
2021/06/16 07:45:31;;;;;;;8.60;3.95;;;21.70;89.40;;;;;;5069932;28;20055;-84
2021/06/16 07:47:58;;;;;;;7.65;3.88;;;21.60;86.90;;;;;;5051181;28;20446;-87
2021/06/16 07:50:25;;;;;;;6.78;3.70;;;21.70;86.60;;;;;;5051032;28;20547;-86
2021/06/16 07:52:52;;;;;;;7.35;3.90;;;21.60;85.30;;;;;;5052460;28;20029;-90
2021/06/16 07:55:26;;;;;;;5.93;4.10;;;21.60;84.60;;;;;;5052222;28;20032;-89
2021/06/16 07:57:52;;;;;;;9.55;3.60;;;21.70;85.50;;;;;;5052918;28;20029;-88
2021/06/16 08:00:21;;;;;;;6.93;4.32;;;21.70;86.20;;;;;;5051921;28;20036;-89
2021/06/16 08:02:50;;;;;;;7.80;4.07;;;21.70;86.00;;;;;;5070011;28;20021;-89
2021/06/16 08:05:15;;;;;;;6.68;4.22;;;21.70;85.90;;;;;;5068500;28;20123;-87
2021/06/16 08:07:53;;;;;;;11.57;4.50;;;21.70;86.30;;;;;;5068818;28;20115;-91
2021/06/16 08:10:31;;;;;;;7.03;3.90;;;21.70;85.80;;;;;;5069455;28;20151;-91
2021/06/16 08:13:00;;;;;;;7.53;4.10;;;21.80;86.60;;;;;;5069883;28;20120;-87
2021/06/16 08:15:27;;;;;;;8.23;4.68;;;21.80;89.30;;;;;;5067409;28;20033;-86
2021/06/16 08:17:53;;;;;;;9.20;3.95;;;21.80;89.50;;;;;;5053431;28;20055;-87
2021/06/16 08:20:19;;;;;;;6.93;3.83;;;21.80;89.50;;;;;;5067486;28;20052;-87
2021/06/16 08:22:44;;;;;;;9.02;4.22;;;21.80;87.40;;;;;;5068830;28;20021;-84
2021/06/16 08:25:12;;;;;;;11.32;5.00;;;21.80;88.90;;;;;;5069512;28;20342;-84
2021/06/16 08:27:41;;;;;;;11.48;4.75;;;21.80;92.90;;;;;;5069519;28;20051;-84
2021/06/16 08:30:10;;;;;;;9.18;4.65;;;21.80;92.70;;;;;;5069236;28;20071;-85
2021/06/16 08:32:36;;;;;;;8.90;4.95;;;21.80;91.40;;;;;;5069837;28;20028;-84
2021/06/16 08:35:02;;;;;;;8.07;5.40;;;21.80;93.50;;;;;;5070209;28;20035;-84
2021/06/16 08:37:28;;;;;;;10.85;6.07;;;21.80;94.90;;;;;;5075366;28;20031;-84
2021/06/16 08:39:54;;;;;;;11.35;5.60;;;21.70;96.30;;;;;;5074424;28;20056;-84
2021/06/16 08:42:19;;;;;;;9.88;4.68;;;21.70;96.70;;;;;;5071880;28;20021;-84
2021/06/16 08:44:50;;;;;;;8.88;5.20;;;21.70;94.80;;;;;;5070538;28;20028;-85
2021/06/16 08:47:16;;;;;;;10.30;5.70;;;21.70;94.90;;;;;;5072159;28;20028;-85
2021/06/16 08:49:42;;;;;;;12.82;5.80;;;21.70;95.70;;;;;;5072159;28;20492;-84
2021/06/16 08:52:07;;;;;;;10.23;5.43;;;21.70;96.50;;;;;;5054921;28;20519;-84
2021/06/16 08:54:35;;;;;;;10.52;4.88;;;21.70;93.70;;;;;;5073087;28;20032;-84
2021/06/16 08:57:00;;;;;;;7.45;4.53;;;21.80;93.50;;;;;;5073028;28;20036;-85
2021/06/16 08:59:27;;;;;;;11.27;5.13;;;21.80;93.80;;;;;;5072070;28;20033;-85
2021/06/16 09:01:52;;;;;;;11.20;5.97;;;21.90;93.40;;;;;;5054335;28;20028;-84
2021/06/16 09:04:50;;;;;;;8.35;5.10;;;21.90;94.70;;;;;;5072837;28;20028;-85
2021/06/16 09:07:19;;;;;;;10.98;5.60;;;21.90;95.10;;;;;;5072983;28;20047;-85
2021/06/16 09:09:46;;;;;;;8.45;5.82;;;21.90;95.40;;;;;;5072331;28;20029;-85
2021/06/16 09:12:15;;;;;;;6.30;4.45;;;21.90;96.40;;;;;;5073384;28;20422;-85
2021/06/16 09:14:55;;;;;;;7.93;5.28;;;21.90;94.00;;;;;;5054629;28;20039;-85
2021/06/16 09:17:22;;;;;;;8.57;5.40;;;22.10;92.50;;;;;;5074056;28;20016;-84
2021/06/16 09:19:59;;;;;;;7.45;5.40;;;22.00;94.80;;;;;;5073521;28;20032;-84
2021/06/16 09:22:30;;;;;;;7.90;5.13;;;22.00;95.50;;;;;;5074944;28;20032;-85
2021/06/16 09:24:57;;;;;;;10.27;5.75;;;22.10;94.00;;;;;;5073929;28;20029;-84
2021/06/16 09:27:36;;;;;;;7.13;5.65;;;22.10;94.20;;;;;;5072420;28;20028;-85
2021/06/16 09:30:03;;;;;;;10.02;6.20;;;22.10;94.50;;;;;;5053588;28;20030;-84
2021/06/16 09:32:43;;;;;;;12.85;6.28;;;22.20;92.80;;;;;;5072235;28;20131;-84
2021/06/16 09:35:27;;;;;;;8.88;6.18;;;22.20;94.10;;;;;;5072696;28;20124;-85
2021/06/16 09:37:54;;;;;;;9.18;5.50;;;22.30;95.10;;;;;;5055012;28;20024;-84
2021/06/16 09:40:35;;;;;;;8.77;6.05;;;22.20;95.00;;;;;;5071796;28;20024;-84
2021/06/16 09:43:12;;;;;;;9.77;6.38;;;22.20;95.50;;;;;;5072210;28;20025;-91
2021/06/16 09:45:40;;;;;;;10.10;5.57;;;22.20;95.20;;;;;;5055281;28;20021;-87
2021/06/16 09:48:26;;;;;;;7.22;5.68;;;22.20;94.70;;;;;;5073401;28;20024;-83
2021/06/16 09:50:53;;;;;;;8.85;5.40;;;22.20;95.40;;;;;;5052469;28;20446;-83
2021/06/16 09:53:20;;;;;;;7.23;5.60;;;22.20;95.60;;;;;;5053460;28;20056;-83
2021/06/16 09:55:46;;;;;;;7.63;5.63;;;22.20;95.80;;;;;;5051830;28;20044;-84
2021/06/16 09:58:17;;;;;;;6.75;4.95;;;22.30;93.30;;;;;;5052474;28;20033;-88
2021/06/16 10:00:52;;;;;;;6.68;5.10;;;22.30;94.20;;;;;;5049817;28;20028;-88
2021/06/16 10:03:20;;;;;;;6.90;5.15;;;22.30;94.00;;;;;;5050421;28;20103;-87
2021/06/16 10:06:13;;;;;;;6.70;5.47;;;22.40;93.30;;;;;;5050739;28;20021;-88
2021/06/16 10:08:47;;;;;;;9.25;5.93;;;22.50;92.80;;;;;;5054507;28;20021;-87
2021/06/16 10:11:21;;;;;;;8.65;5.82;;;22.50;93.80;;;;;;5053084;28;20031;-87
2021/06/16 10:13:49;;;;;;;7.78;5.68;;;22.50;94.30;;;;;;5053297;28;20024;-87
2021/06/16 10:16:16;;;;;;;8.00;5.72;;;22.50;94.30;;;;;;5071422;28;20032;-87
2021/06/16 10:18:43;;;;;;;11.02;6.88;;;22.60;94.80;;;;;;5049569;28;20054;-87
2021/06/16 10:21:15;;;;;;;9.18;6.50;;;22.60;94.00;;;;;;5049590;28;20032;-87
2021/06/16 10:23:41;;;;;;;7.10;5.88;;;22.60;94.40;;;;;;5050725;28;20115;-87
2021/06/16 10:26:28;;;;;;;7.30;6.00;;;22.60;94.40;;;;;;5050267;28;20029;-87
2021/06/16 10:29:00;;;;;;;7.40;6.20;;;22.50;94.20;;;;;;5049506;28;20140;-87
2021/06/16 10:31:39;;;;;;;10.63;7.38;;;22.60;94.60;;;;;;5049785;28;20029;-87
2021/06/16 10:34:05;;;;;;;8.35;6.43;;;22.70;95.30;;;;;;5051025;28;20556;-90
2021/06/16 10:36:32;;;;;;;8.88;5.93;;;22.70;94.20;;;;;;5049496;28;20207;-87
2021/06/16 10:38:57;;;;;;;8.10;6.25;;;22.70;93.40;;;;;;5052350;28;20377;-88
2021/06/16 10:41:56;;;;;;;10.77;7.15;;;22.80;93.10;;;;;;5071002;28;20024;-88
2021/06/16 10:44:24;;;;;;;9.13;7.10;;;22.80;93.30;;;;;;5016151;28;20094;-88
2021/06/16 10:47:00;;;;;;;8.48;6.93;;;22.80;93.70;;;;;;5053170;28;20385;-86
2021/06/16 10:49:49;;;;;;;8.88;6.75;;;22.80;93.30;;;;;;5059780;28;20033;-87
2021/06/16 10:52:16;;;;;;;;;;;22.90;93.90;;;;;;5049824;28;20501;-86
2021/06/16 10:55:08;;;;;;;7.07;5.10;;;22.90;93.90;;;;;;5049654;28;19908;-88
2021/06/16 10:57:33;;;;;;;9.75;5.65;;;22.90;93.40;;;;;;5046838;28;20057;-89
2021/06/16 11:00:01;;;;;;;8.32;5.53;;;22.80;93.40;;;;;;5050368;28;20060;-86
2021/06/16 11:02:34;;;;;;;7.63;5.70;;;22.80;93.80;;;;;;5050869;28;20021;-85
2021/06/16 11:05:17;;;;;;;7.85;5.70;;;22.80;93.80;;;;;;5050718;28;20039;-84
2021/06/16 11:07:43;;;;;;;8.27;6.22;;;22.80;94.20;;;;;;5050900;28;20021;-86
2021/06/16 11:10:08;;;;;;;9.27;6.15;;;22.80;94.10;;;;;;5051382;28;20027;-85
2021/06/16 11:12:42;;;;;;;13.55;6.78;;;22.80;93.70;;;;;;5070871;28;20426;-85
2021/06/16 11:15:09;;;;;;;9.50;7.05;;;22.90;94.10;;;;;;5052519;28;20345;-85
2021/06/16 11:17:35;;;;;;;9.15;6.75;;;23.00;93.20;;;;;;5052482;28;20021;-85
2021/06/16 11:20:07;;;;;;;10.38;6.82;;;23.20;92.50;;;;;;5052188;28;20023;-90
2021/06/16 11:22:59;;;;;;;8.48;6.90;;;23.30;93.30;;;;;;5069382;28;20087;-91
2021/06/16 11:25:29;;;;;;;9.25;7.03;;;23.40;93.10;;;;;;5052411;28;20393;-85
2021/06/16 11:28:11;;;;;;;8.02;6.78;;;23.40;93.10;;;;;;5070620;28;20048;-84
2021/06/16 11:30:55;;;;;;;9.88;7.57;;;23.50;91.90;;;;;;5068235;28;20396;-85
2021/06/16 11:33:24;;;;;;;9.00;6.80;;;23.50;92.10;;;;;;5070253;28;20047;-85
2021/06/16 11:35:49;;;;;;;9.38;7.38;;;23.50;92.40;;;;;;5068524;28;20024;-86
2021/06/16 11:38:21;;;;;;;8.48;6.80;;;23.50;92.40;;;;;;5068099;28;20074;-88
2021/06/16 11:41:05;;;;;;;9.65;7.18;;;23.50;92.40;;;;;;5048212;28;20025;-85
2021/06/16 11:43:36;;;;;;;10.23;7.60;;;23.70;92.30;;;;;;5048945;28;20029;-84
2021/06/16 11:46:11;;;;;;;8.63;7.28;;;23.80;91.80;;;;;;5050106;28;20378;-85
2021/06/16 11:48:37;;;;;;;11.45;8.10;;;23.80;92.00;;;;;;5052915;28;20118;-85
2021/06/16 11:51:03;;;;;;;9.15;8.13;;;23.90;91.90;;;;;;5051377;28;20032;-85
2021/06/16 11:53:31;;;;;;;11.68;7.57;;;23.90;91.90;;;;;;5051771;28;20039;-85
2021/06/16 11:56:01;;;;;;;9.45;7.15;;;23.90;90.60;;;;;;5051712;28;20090;-85
2021/06/16 11:58:28;;;;;;;8.75;7.22;;;24.10;90.70;;;;;;5069533;28;20392;-85
2021/06/16 12:01:06;;;;;;;11.45;6.60;;;24.00;90.80;;;;;;5069427;28;20468;-86
2021/06/16 12:03:32;;;;;;;9.60;6.68;;;24.10;89.90;;;;;;5052002;28;20028;-85
2021/06/16 12:06:02;;;;;;;9.02;6.55;;;24.10;90.00;;;;;;5070023;28;20032;-86
2021/06/16 12:08:28;;;;;;;8.80;6.30;;;24.20;90.10;;;;;;5050179;28;20047;-88
2021/06/16 12:10:54;;;;;;;7.85;6.30;;;24.20;90.20;;;;;;5047856;28;20453;-87
2021/06/16 12:13:20;;;;;;;9.45;6.35;;;24.20;89.80;;;;;;5048510;28;20099;-89
2021/06/16 12:15:46;;;;;;;8.27;6.35;;;24.20;87.70;;;;;;5049198;28;20021;-86
2021/06/16 12:18:14;;;;;;;7.28;5.85;;;24.30;89.00;;;;;;5047649;28;20120;-86
2021/06/16 12:20:44;;;;;;;9.38;6.63;;;24.50;85.80;;;;;;5047305;28;20085;-86
2021/06/16 12:23:35;;;;;;;8.38;5.75;;;24.70;86.00;;;;;;5052247;28;20029;-87
2021/06/16 12:26:24;;;;;;;10.57;5.82;;;24.90;84.90;;;;;;5052642;28;20184;-87
2021/06/16 12:28:53;;;;;;;7.93;6.10;;;25.10;84.30;;;;;;5051594;28;20029;-87
2021/06/16 12:31:40;;;;;;;7.82;5.50;;;25.40;81.50;;;;;;5052600;28;20170;-87
2021/06/16 12:34:18;;;;;;;8.57;6.53;;;25.60;81.50;;;;;;5051943;28;20025;-87
2021/06/16 12:36:44;;;;;;;7.00;5.85;;;25.70;80.20;;;;;;5051894;28;20106;-89
2021/06/16 12:39:13;;;;;;;8.75;5.70;;;25.80;81.20;;;;;;5052412;28;20457;-87
2021/06/16 12:41:54;;;;;;;7.35;5.68;;;26.00;79.30;;;;;;5051869;28;20667;-87
2021/06/16 12:44:42;;;;;;;7.40;5.80;;;26.10;80.20;;;;;;5051821;28;20021;-87
2021/06/16 12:47:21;;;;;;;7.55;6.03;;;26.10;79.00;;;;;;5051830;28;20428;-87
2021/06/16 12:49:52;;;;;;;7.65;5.07;;;26.20;78.10;;;;;;5051904;28;20397;-87
2021/06/16 12:52:32;;;;;;;8.25;5.45;;;26.40;77.00;;;;;;5053150;28;20029;-87
2021/06/16 12:55:13;;;;;;;8.75;5.32;;;26.70;74.90;;;;;;5053337;28;20445;-88